Time;durP1;ratioP1;P1;durP2;ratioP2;P2;SDS_P1;SDS_P2;PMS_P1;PMS_P2;Temp;Humidity;BMP_temperature;BMP_pressure;BME280_temperature;BME280_humidity;BME280_pressure;Samples;Min_cycle;Max_cycle;Signal;HPM_P1;HPM_P2
2024/02/10 00:16:36;;;;;;;11.10;4.13;;;10.90;99.90;;;;;;5635602;22;20104;-95
2024/02/10 00:42:24;;;;;;;10.48;3.92;;;11.00;99.90;;;;;;6045525;22;20035;-95
2024/02/10 00:44:51;;;;;;;9.88;4.15;;;10.90;99.90;;;;;;5054688;28;20031;-95
2024/02/10 00:47:17;;;;;;;8.98;4.30;;;11.00;99.90;;;;;;5069121;28;20028;-94
2024/02/10 02:10:29;;;;;;;9.45;3.60;;;11.00;99.90;;;;;;5847559;23;20065;-95
2024/02/10 02:46:35;;;;;;;9.40;3.80;;;11.00;99.90;;;;;;5985355;23;20028;-95
2024/02/10 02:49:01;;;;;;;9.15;4.00;;;11.00;99.90;;;;;;5027174;28;20033;-94
2024/02/10 02:51:26;;;;;;;6.22;3.28;;;11.00;99.90;;;;;;5018120;28;20030;-95
2024/02/10 02:59:05;;;;;;;9.57;3.45;;;11.00;99.90;;;;;;5129862;23;20077;-95
2024/02/10 03:01:33;;;;;;;6.50;3.85;;;10.90;99.90;;;;;;5017646;28;20014;-96
2024/02/10 03:59:22;;;;;;;6.25;3.45;;;10.80;99.90;;;;;;5564082;23;20077;-94
2024/02/10 04:01:48;;;;;;;9.95;4.03;;;10.80;99.90;;;;;;5014146;28;20017;-95
2024/02/10 04:35:19;;;;;;;6.95;3.80;;;10.80;99.90;;;;;;5724127;22;20068;-96
2024/02/10 04:48:07;;;;;;;8.27;3.90;;;10.70;99.90;;;;;;6034660;22;20089;-95
2024/02/10 04:50:34;;;;;;;8.15;4.30;;;10.70;99.90;;;;;;4990328;28;20046;-96
2024/02/10 04:53:00;;;;;;;10.75;4.38;;;10.70;99.90;;;;;;4995582;28;20045;-96
2024/02/10 04:55:27;;;;;;;6.35;3.60;;;10.70;99.90;;;;;;4998164;28;20015;-96
2024/02/10 04:57:53;;;;;;;7.32;3.70;;;10.70;99.90;;;;;;4988646;28;20031;-95
2024/02/10 05:00:22;;;;;;;6.35;3.85;;;10.70;99.90;;;;;;4980594;28;20074;-96
2024/02/10 05:02:52;;;;;;;6.07;3.75;;;10.70;99.90;;;;;;4962999;28;20065;-94
2024/02/10 05:05:20;;;;;;;6.95;3.65;;;10.70;99.90;;;;;;4961986;28;20019;-95
2024/02/10 05:07:53;;;;;;;8.05;3.80;;;10.70;99.90;;;;;;4963002;28;20102;-94
2024/02/10 05:10:19;;;;;;;7.68;4.00;;;10.70;99.90;;;;;;4981431;28;20034;-96
2024/02/10 05:12:48;;;;;;;6.60;3.92;;;10.70;99.90;;;;;;4982213;28;20051;-96
2024/02/10 05:15:20;;;;;;;8.63;3.95;;;10.70;99.90;;;;;;4985192;28;20034;-96
2024/02/10 05:17:50;;;;;;;7.18;3.80;;;10.70;99.90;;;;;;4965397;28;20405;-96
2024/02/10 05:20:23;;;;;;;9.35;4.47;;;10.70;99.90;;;;;;4982407;28;20019;-95
2024/02/10 05:22:53;;;;;;;8.90;4.18;;;10.70;99.90;;;;;;4979812;28;20022;-96
2024/02/10 05:25:20;;;;;;;7.45;3.72;;;10.70;99.90;;;;;;4984637;28;20543;-95
2024/02/10 05:27:47;;;;;;;9.02;4.43;;;10.60;99.90;;;;;;4989979;28;20038;-96
2024/02/10 05:30:20;;;;;;;6.95;3.95;;;10.60;99.90;;;;;;4987610;28;20035;-96
2024/02/10 05:32:49;;;;;;;7.70;3.90;;;10.60;99.90;;;;;;4978158;28;20030;-96
2024/02/10 05:35:18;;;;;;;6.70;3.78;;;10.60;99.90;;;;;;4990206;28;20046;-96
2024/02/10 05:37:53;;;;;;;9.10;4.88;;;10.60;99.90;;;;;;4971160;28;20027;-96
2024/02/10 05:59:49;;;;;;;7.50;4.68;;;10.60;99.90;;;;;;5428329;23;20088;-94
2024/02/10 06:02:16;;;;;;;7.30;4.40;;;10.60;99.90;;;;;;5014876;28;20042;-94
2024/02/10 06:04:42;;;;;;;8.50;4.75;;;10.60;99.90;;;;;;5014746;28;20022;-95
2024/02/10 06:07:08;;;;;;;11.48;4.88;;;10.60;99.90;;;;;;5017904;28;20028;-95
2024/02/10 06:09:34;;;;;;;6.15;4.18;;;10.60;99.90;;;;;;5030255;28;20155;-94
2024/02/10 06:12:04;;;;;;;8.23;5.15;;;10.60;99.90;;;;;;5024973;28;20026;-95
2024/02/10 06:14:37;;;;;;;6.90;5.28;;;10.60;99.90;;;;;;5036283;28;20030;-95
2024/02/10 06:17:04;;;;;;;6.63;4.43;;;10.60;99.90;;;;;;5020898;28;20026;-95
2024/02/10 06:19:29;;;;;;;8.95;4.78;;;10.60;99.90;;;;;;5030781;28;20037;-96
2024/02/10 06:21:55;;;;;;;8.07;5.32;;;10.60;99.90;;;;;;5026854;28;20037;-95
2024/02/10 06:24:24;;;;;;;8.40;4.75;;;10.60;99.90;;;;;;5032699;28;20100;-95
2024/02/10 06:26:50;;;;;;;8.55;5.05;;;10.60;99.90;;;;;;5020440;28;20022;-95
2024/02/10 06:29:16;;;;;;;6.85;4.57;;;10.60;99.90;;;;;;5026916;28;20594;-96
2024/02/10 06:31:42;;;;;;;8.45;4.88;;;10.60;99.90;;;;;;5031773;28;20034;-95
2024/02/10 06:34:08;;;;;;;8.80;5.25;;;10.60;99.90;;;;;;5014845;28;20030;-95
2024/02/10 06:36:34;;;;;;;7.78;4.57;;;10.60;99.90;;;;;;4996598;28;20542;-95
2024/02/10 06:39:00;;;;;;;10.13;5.38;;;10.60;99.90;;;;;;5025229;28;20038;-93
2024/02/10 06:41:30;;;;;;;9.55;4.93;;;10.50;99.90;;;;;;5004428;28;20006;-95
2024/02/10 06:43:56;;;;;;;8.07;4.85;;;10.60;99.90;;;;;;5013418;28;20022;-95
2024/02/10 06:46:22;;;;;;;8.98;5.03;;;10.50;99.90;;;;;;5031340;28;20026;-96
2024/02/10 06:48:48;;;;;;;11.02;5.13;;;10.50;99.90;;;;;;5026488;28;20018;-96
2024/02/10 06:51:13;;;;;;;8.20;4.97;;;10.50;99.90;;;;;;5024873;28;20066;-95
2024/02/10 06:53:39;;;;;;;9.40;5.50;;;10.50;99.90;;;;;;5028281;28;20038;-94
2024/02/10 06:56:05;;;;;;;8.43;5.35;;;10.50;99.90;;;;;;5025336;28;20026;-95
2024/02/10 06:58:31;;;;;;;9.73;5.20;;;10.50;99.90;;;;;;5032707;28;20045;-95
2024/02/10 07:00:58;;;;;;;9.30;6.00;;;10.50;99.90;;;;;;5035754;28;20033;-95
2024/02/10 07:03:24;;;;;;;8.63;5.40;;;10.40;99.90;;;;;;5033866;28;20025;-95
2024/02/10 07:05:52;;;;;;;7.55;5.25;;;10.40;99.90;;;;;;5021289;28;20124;-95
2024/02/10 07:08:22;;;;;;;8.30;4.75;;;10.40;99.90;;;;;;5005788;28;20037;-95
2024/02/10 07:10:49;;;;;;;11.32;5.68;;;10.40;99.90;;;;;;5020481;28;20030;-95
2024/02/10 07:13:15;;;;;;;8.85;4.88;;;10.40;99.90;;;;;;5020931;28;20022;-95
2024/02/10 07:15:41;;;;;;;11.02;5.03;;;10.40;99.90;;;;;;5016492;28;20029;-95
2024/02/10 07:18:09;;;;;;;10.73;5.63;;;10.40;99.90;;;;;;5003328;28;20515;-93
2024/02/10 07:20:34;;;;;;;7.93;5.10;;;10.40;99.90;;;;;;5021472;28;20640;-96
2024/02/10 07:23:03;;;;;;;8.23;5.10;;;10.30;99.90;;;;;;5018387;28;20024;-95
2024/02/10 07:25:35;;;;;;;10.88;5.60;;;10.30;99.90;;;;;;5021584;28;20038;-94
2024/02/10 07:28:01;;;;;;;8.57;5.20;;;10.30;99.90;;;;;;5019953;28;20037;-95
2024/02/10 07:30:29;;;;;;;8.18;5.40;;;10.40;99.90;;;;;;5009850;28;20045;-96
2024/02/10 07:33:03;;;;;;;9.98;5.07;;;10.40;99.90;;;;;;5024632;28;20014;-94
2024/02/10 07:35:32;;;;;;;10.25;5.40;;;10.40;99.90;;;;;;5029558;28;20026;-96
2024/02/10 07:37:58;;;;;;;10.13;5.28;;;10.40;99.90;;;;;;5023239;28;20052;-94
2024/02/10 07:40:24;;;;;;;9.25;4.97;;;10.40;99.90;;;;;;5009051;28;20022;-95
2024/02/10 07:42:52;;;;;;;10.10;5.28;;;10.40;99.90;;;;;;5024040;28;20040;-95
2024/02/10 07:45:18;;;;;;;9.65;5.40;;;10.50;99.90;;;;;;4990585;28;20021;-96
2024/02/10 07:47:47;;;;;;;8.85;5.15;;;10.50;99.90;;;;;;4999969;28;20030;-95
2024/02/10 07:50:14;;;;;;;11.90;4.97;;;10.60;99.90;;;;;;5021880;28;20032;-95
2024/02/10 07:52:42;;;;;;;8.50;5.07;;;10.60;99.90;;;;;;5019276;28;20033;-95
2024/02/10 07:55:12;;;;;;;9.05;5.35;;;10.60;99.90;;;;;;5000074;28;20049;-94
2024/02/10 07:57:41;;;;;;;8.93;5.45;;;10.60;99.90;;;;;;5014484;28;20112;-96
2024/02/10 08:00:11;;;;;;;8.38;5.65;;;10.60;99.90;;;;;;5030620;28;20058;-95
2024/02/10 08:02:37;;;;;;;7.60;5.68;;;10.60;99.90;;;;;;5028708;28;20109;-93
2024/02/10 08:05:04;;;;;;;9.93;5.65;;;10.50;99.90;;;;;;5024277;28;20028;-96
2024/02/10 08:07:30;;;;;;;7.97;5.10;;;10.50;99.90;;;;;;5003688;28;20022;-96
2024/02/10 08:09:58;;;;;;;9.70;4.78;;;10.50;99.90;;;;;;5007871;28;20018;-96
2024/02/10 08:12:24;;;;;;;10.38;5.55;;;10.60;99.90;;;;;;5025830;28;20029;-96
2024/02/10 08:14:51;;;;;;;8.25;5.43;;;10.60;99.90;;;;;;5024831;28;20033;-95
2024/02/10 08:17:20;;;;;;;7.93;5.30;;;10.50;99.90;;;;;;5011760;28;20502;-95
2024/02/10 08:19:46;;;;;;;9.63;5.20;;;10.60;99.90;;;;;;5023173;28;20026;-95
2024/02/10 08:22:13;;;;;;;9.80;4.93;;;10.60;99.90;;;;;;5001207;28;20025;-96
2024/02/10 08:24:39;;;;;;;9.52;4.75;;;10.60;99.90;;;;;;4999290;28;20029;-95
2024/02/10 08:27:09;;;;;;;7.65;4.95;;;10.60;99.90;;;;;;5018024;28;20036;-96
2024/02/10 08:29:35;;;;;;;9.30;4.88;;;10.60;99.90;;;;;;5026438;28;20025;-96
2024/02/10 08:32:04;;;;;;;7.68;5.38;;;10.60;99.90;;;;;;5018654;28;20688;-95
2024/02/10 08:34:32;;;;;;;8.13;4.57;;;10.60;99.90;;;;;;5018789;28;20502;-95
2024/02/10 08:37:03;;;;;;;8.43;5.00;;;10.60;99.90;;;;;;5015774;28;20033;-95
2024/02/10 08:39:29;;;;;;;;;;;10.60;99.90;;;;;;5015754;28;20028;-94
2024/02/10 08:41:54;;;;;;;6.70;4.30;;;10.60;99.90;;;;;;5013959;28;19952;-93
2024/02/10 08:44:21;;;;;;;8.48;4.55;;;10.60;99.90;;;;;;5010302;28;20045;-94
2024/02/10 08:46:47;;;;;;;9.30;4.70;;;10.60;99.90;;;;;;5013344;28;20570;-93
2024/02/10 08:49:14;;;;;;;6.88;4.32;;;10.60;99.90;;;;;;5012183;28;20072;-93
2024/02/10 08:51:41;;;;;;;7.80;4.70;;;10.60;99.90;;;;;;5012580;28;20053;-94
2024/02/10 08:54:07;;;;;;;7.60;4.72;;;10.60;99.90;;;;;;5000357;28;20157;-94
2024/02/10 08:56:38;;;;;;;10.27;4.38;;;10.70;99.90;;;;;;5012686;28;20022;-94
2024/02/10 08:59:05;;;;;;;7.35;4.53;;;10.70;99.90;;;;;;5013599;28;20114;-94
2024/02/10 09:01:31;;;;;;;6.45;4.00;;;10.70;99.90;;;;;;5014550;28;20024;-93
2024/02/10 09:03:58;;;;;;;8.02;4.25;;;10.70;99.90;;;;;;4993463;28;20133;-93
2024/02/10 09:06:24;;;;;;;6.97;4.25;;;10.80;99.90;;;;;;5000420;28;20084;-92
2024/02/10 09:08:50;;;;;;;10.20;4.75;;;10.70;99.90;;;;;;5009720;28;20034;-93
2024/02/10 09:11:18;;;;;;;6.55;4.20;;;10.80;99.90;;;;;;4998342;28;20153;-93
2024/02/10 09:13:45;;;;;;;8.05;4.30;;;10.80;99.90;;;;;;5011205;28;20030;-94
2024/02/10 09:16:14;;;;;;;7.97;4.28;;;10.90;99.90;;;;;;5012002;28;20026;-94
2024/02/10 09:18:43;;;;;;;7.15;3.67;;;10.90;99.90;;;;;;5010955;28;20111;-94
2024/02/10 09:21:12;;;;;;;6.97;4.15;;;10.90;99.90;;;;;;5011551;28;20472;-94
2024/02/10 09:23:42;;;;;;;7.82;4.10;;;10.90;99.90;;;;;;5011993;28;20049;-93
2024/02/10 09:26:08;;;;;;;5.90;3.90;;;11.00;99.90;;;;;;4993734;28;20018;-93
2024/02/10 09:28:34;;;;;;;7.50;4.30;;;11.00;99.90;;;;;;4992401;28;20040;-92
2024/02/10 09:31:04;;;;;;;7.50;4.18;;;11.00;99.90;;;;;;5013238;28;20113;-90
2024/02/10 09:33:31;;;;;;;8.32;4.50;;;11.10;99.90;;;;;;5010638;28;20053;-92
2024/02/10 09:35:57;;;;;;;7.78;4.50;;;11.10;99.90;;;;;;5010739;28;20030;-91
2024/02/10 09:38:26;;;;;;;6.45;4.57;;;11.20;99.90;;;;;;5010010;28;20030;-93
2024/02/10 09:40:56;;;;;;;7.60;4.05;;;11.20;99.90;;;;;;5002449;28;20061;-92
2024/02/10 09:43:31;;;;;;;7.88;4.60;;;11.20;99.90;;;;;;5010763;28;20030;-91
2024/02/10 09:46:02;;;;;;;9.75;4.70;;;11.20;99.90;;;;;;5005361;28;20065;-91
2024/02/10 09:48:31;;;;;;;7.28;4.38;;;11.30;99.90;;;;;;4991052;28;20032;-89
2024/02/10 09:50:56;;;;;;;9.30;4.60;;;11.40;99.90;;;;;;5010678;28;20068;-91
2024/02/10 09:53:24;;;;;;;6.38;4.05;;;11.40;99.90;;;;;;5009995;28;20322;-91
2024/02/10 09:55:52;;;;;;;8.45;4.75;;;11.40;99.90;;;;;;5010501;28;20026;-90
2024/02/10 09:58:19;;;;;;;6.22;4.03;;;11.50;99.90;;;;;;5003469;28;20484;-91
2024/02/10 10:00:44;;;;;;;7.30;4.38;;;11.50;99.90;;;;;;5002584;28;20057;-90
2024/02/10 10:03:14;;;;;;;6.18;3.97;;;11.60;99.90;;;;;;5012964;28;20026;-90
2024/02/10 10:05:43;;;;;;;6.95;3.72;;;11.60;99.90;;;;;;5010470;28;20041;-89
2024/02/10 10:08:10;;;;;;;7.47;3.85;;;11.60;99.90;;;;;;5006733;28;20029;-90
2024/02/10 10:10:36;;;;;;;6.78;3.90;;;11.70;99.90;;;;;;4987984;28;20022;-89
2024/02/10 10:13:02;;;;;;;6.78;3.92;;;11.70;99.90;;;;;;4992434;28;20125;-90
2024/02/10 10:15:30;;;;;;;9.57;3.70;;;11.70;99.90;;;;;;5009212;28;20112;-88
2024/02/10 10:17:56;;;;;;;6.78;3.72;;;11.80;99.90;;;;;;4998154;28;20030;-89
2024/02/10 10:20:23;;;;;;;7.00;3.83;;;11.90;99.90;;;;;;5004280;28;20501;-89
2024/02/10 10:22:50;;;;;;;7.13;3.58;;;11.90;99.90;;;;;;5000457;28;20395;-91
2024/02/10 10:25:16;;;;;;;6.63;3.85;;;11.90;99.90;;;;;;4983870;28;20134;-89
2024/02/10 10:27:41;;;;;;;5.57;3.50;;;12.00;99.90;;;;;;5005550;28;20053;-90
2024/02/10 10:30:12;;;;;;;7.03;3.33;;;12.00;99.90;;;;;;4992882;28;20038;-90
2024/02/10 10:32:42;;;;;;;6.03;3.38;;;12.10;99.90;;;;;;4989377;28;20041;-87
2024/02/10 10:35:12;;;;;;;5.80;3.30;;;12.10;99.90;;;;;;5013051;28;20113;-91
2024/02/10 10:37:38;;;;;;;5.20;3.10;;;12.10;99.90;;;;;;5012568;28;20029;-89
2024/02/10 10:40:08;;;;;;;5.32;2.97;;;12.10;99.90;;;;;;5013388;28;20025;-89
2024/02/10 10:42:36;;;;;;;6.20;3.42;;;12.20;99.90;;;;;;5013717;28;20112;-88
2024/02/10 10:45:03;;;;;;;4.32;2.95;;;12.20;99.90;;;;;;4999180;28;20056;-89
2024/02/10 10:47:29;;;;;;;4.80;3.25;;;12.30;99.90;;;;;;5014981;28;20046;-87
2024/02/10 10:49:57;;;;;;;4.60;2.90;;;12.30;99.90;;;;;;5025157;28;20030;-87
2024/02/10 10:52:27;;;;;;;5.78;3.10;;;12.40;99.90;;;;;;5026343;28;20052;-86
2024/02/10 10:54:55;;;;;;;6.15;3.20;;;12.40;99.90;;;;;;5029764;28;20026;-89
2024/02/10 10:57:25;;;;;;;8.00;3.00;;;12.40;99.90;;;;;;5022792;28;20041;-88
2024/02/10 11:00:11;;;;;;;9.18;3.22;;;12.40;99.90;;;;;;5009476;28;20050;-86
2024/02/10 11:02:40;;;;;;;9.27;3.20;;;12.40;99.90;;;;;;5016113;28;20024;-86
2024/02/10 11:05:10;;;;;;;3.80;2.50;;;12.40;99.90;;;;;;5016492;28;20033;-87
2024/02/10 11:07:37;;;;;;;5.85;2.67;;;12.50;99.90;;;;;;5017198;28;20036;-83
2024/02/10 11:10:05;;;;;;;5.15;2.50;;;12.50;99.90;;;;;;5012759;28;20033;-90
2024/02/10 11:12:32;;;;;;;7.03;3.25;;;12.50;99.90;;;;;;5008816;28;20022;-89
2024/02/10 11:14:58;;;;;;;6.75;3.35;;;12.60;99.90;;;;;;4999222;28;20081;-88
2024/02/10 11:17:29;;;;;;;6.30;3.40;;;12.60;99.90;;;;;;4993372;28;20048;-87
2024/02/10 11:20:06;;;;;;;7.53;3.00;;;12.60;99.90;;;;;;5022350;28;20053;-88
2024/02/10 11:22:36;;;;;;;8.05;2.65;;;12.60;99.90;;;;;;5021783;28;20034;-87
2024/02/10 11:25:11;;;;;;;6.88;3.70;;;12.60;99.90;;;;;;5017259;28;20025;-88
2024/02/10 11:27:38;;;;;;;6.00;3.55;;;12.70;99.90;;;;;;5019876;28;20029;-88
2024/02/10 11:30:04;;;;;;;6.55;3.15;;;12.70;99.90;;;;;;5017929;28;20081;-88
2024/02/10 11:32:33;;;;;;;4.15;2.63;;;12.70;99.90;;;;;;4994805;28;20033;-84
2024/02/10 11:34:59;;;;;;;4.32;2.53;;;12.80;99.90;;;;;;5001428;28;20050;-85
2024/02/10 11:37:26;;;;;;;7.93;2.95;;;12.80;99.90;;;;;;5005789;28;20472;-87
2024/02/10 11:39:56;;;;;;;4.20;2.70;;;12.80;99.90;;;;;;5010838;28;20064;-86
2024/02/10 11:42:27;;;;;;;6.20;2.80;;;12.80;99.90;;;;;;5010958;28;20092;-86
2024/02/10 11:44:53;;;;;;;;;;;12.80;99.90;;;;;;5012803;28;20022;-90
2024/02/10 11:47:19;;;;;;;5.32;2.42;;;12.90;99.90;;;;;;4994752;28;19999;-91
2024/02/10 11:49:45;;;;;;;5.05;2.60;;;12.80;99.90;;;;;;5014729;28;20042;-89
2024/02/10 11:52:11;;;;;;;6.47;2.40;;;12.90;99.90;;;;;;4989642;28;20025;-87
2024/02/10 11:54:37;;;;;;;4.38;2.40;;;12.90;99.90;;;;;;4981061;28;20499;-85
2024/02/10 11:57:07;;;;;;;5.78;2.53;;;12.90;99.90;;;;;;4996121;28;20026;-87
2024/02/10 11:59:37;;;;;;;4.88;2.60;;;12.90;99.90;;;;;;5007124;28;20128;-89
2024/02/10 12:02:03;;;;;;;3.72;2.30;;;13.00;99.90;;;;;;4993329;28;20033;-88
2024/02/10 12:04:32;;;;;;;4.60;2.67;;;13.00;99.90;;;;;;5010820;28;20049;-88
2024/02/10 12:06:58;;;;;;;4.95;2.60;;;13.00;99.90;;;;;;5011062;28;20856;-87
2024/02/10 12:09:25;;;;;;;4.35;2.45;;;13.10;99.90;;;;;;4992914;28;20022;-88
2024/02/10 12:11:59;;;;;;;4.50;2.80;;;13.10;99.90;;;;;;4999941;28;20023;-88
2024/02/10 12:14:27;;;;;;;6.15;2.97;;;13.20;99.90;;;;;;4990908;28;20045;-88
2024/02/10 12:17:07;;;;;;;6.93;2.85;;;13.20;99.90;;;;;;5005531;28;20021;-88
2024/02/10 12:19:38;;;;;;;4.22;2.95;;;13.20;99.90;;;;;;4992580;28;20408;-89
2024/02/10 12:22:08;;;;;;;3.80;2.50;;;13.30;99.90;;;;;;5011917;28;20029;-89
2024/02/10 12:24:33;;;;;;;5.50;3.22;;;13.30;99.90;;;;;;5014500;28;20033;-90
2024/02/10 12:26:59;;;;;;;6.03;3.67;;;13.40;99.90;;;;;;5015189;28;20034;-89
2024/02/10 12:29:28;;;;;;;6.50;3.78;;;13.40;99.90;;;;;;5013757;28;20026;-90
2024/02/10 12:31:54;;;;;;;5.70;3.72;;;13.40;99.90;;;;;;5014807;28;20025;-88
2024/02/10 12:34:19;;;;;;;8.35;3.30;;;13.40;99.90;;;;;;4995086;28;20029;-88
2024/02/10 12:36:45;;;;;;;10.45;4.05;;;13.50;99.90;;;;;;4997046;28;20613;-88
2024/02/10 12:39:12;;;;;;;6.18;3.53;;;13.50;99.90;;;;;;4992713;28;20109;-86
2024/02/10 12:41:38;;;;;;;6.40;3.40;;;13.50;99.90;;;;;;4992473;28;20056;-88
2024/02/10 12:44:05;;;;;;;7.18;3.92;;;13.50;99.90;;;;;;5010361;28;20475;-87
2024/02/10 12:46:31;;;;;;;5.82;3.83;;;13.60;99.90;;;;;;5010264;28;20515;-87
2024/02/10 12:48:56;;;;;;;8.38;4.53;;;13.50;99.90;;;;;;5010395;28;20295;-89
2024/02/10 12:51:25;;;;;;;6.43;4.20;;;13.50;99.90;;;;;;5010867;28;20030;-89
2024/02/10 12:53:54;;;;;;;7.57;4.72;;;13.60;99.90;;;;;;5009156;28;20119;-89
2024/02/10 12:56:24;;;;;;;6.53;4.65;;;13.60;99.90;;;;;;5013950;28;20030;-83
2024/02/10 12:58:50;;;;;;;7.20;4.50;;;13.60;99.90;;;;;;5012965;28;20046;-91
2024/02/10 13:01:16;;;;;;;9.70;4.53;;;13.60;99.90;;;;;;5011976;28;20092;-92
2024/02/10 13:03:42;;;;;;;6.13;4.13;;;13.60;99.90;;;;;;5008913;28;20021;-88
2024/02/10 13:06:11;;;;;;;7.18;4.35;;;13.60;99.90;;;;;;5008151;28;20021;-84
2024/02/10 13:08:37;;;;;;;5.60;4.13;;;13.60;99.90;;;;;;5007001;28;20042;-80
2024/02/10 13:11:05;;;;;;;6.90;4.25;;;13.60;99.90;;;;;;4983638;28;20396;-83
2024/02/10 13:13:30;;;;;;;6.40;4.40;;;13.60;99.90;;;;;;4979942;28;20037;-79
2024/02/10 13:15:56;;;;;;;6.78;4.50;;;13.60;99.90;;;;;;5006310;28;20014;-79
2024/02/10 13:18:22;;;;;;;6.97;3.85;;;13.60;99.90;;;;;;5005630;28;20033;-79
2024/02/10 13:20:49;;;;;;;9.50;3.92;;;13.60;99.90;;;;;;5005519;28;20407;-79
2024/02/10 13:23:15;;;;;;;5.97;4.13;;;13.60;99.90;;;;;;5005893;28;20026;-80
2024/02/10 13:25:41;;;;;;;7.30;3.88;;;13.70;99.90;;;;;;5010789;28;20040;-79
2024/02/10 13:28:07;;;;;;;8.27;4.03;;;13.70;99.90;;;;;;5008996;28;20037;-79
2024/02/10 13:30:36;;;;;;;5.97;3.53;;;13.70;99.90;;;;;;4980015;28;20149;-80
2024/02/10 13:33:02;;;;;;;5.28;3.40;;;13.70;99.90;;;;;;5004167;28;20022;-79
2024/02/10 13:35:29;;;;;;;6.07;3.30;;;13.60;99.90;;;;;;5003086;28;20033;-80
2024/02/10 14:12:41;;;;;;;9.30;4.77;;;13.60;99.90;;;;;;5005136;28;20038;-81
2024/02/10 14:15:54;;;;;;;8.85;5.20;;;13.60;99.90;;;;;;5006677;28;20148;-79
2024/02/10 14:17:58;;;;;;;13.98;5.03;;;13.60;99.90;;;;;;4999148;28;20046;-80
2024/02/10 14:20:35;;;;;;;8.32;4.97;;;13.60;99.90;;;;;;4986729;28;20045;-80
2024/02/10 14:23:01;;;;;;;6.90;4.50;;;13.60;99.90;;;;;;4989082;28;20084;-79
2024/02/10 14:25:32;;;;;;;7.97;4.85;;;13.60;99.90;;;;;;5002294;28;20087;-79
2024/02/10 14:28:11;;;;;;;7.55;4.50;;;13.60;99.90;;;;;;5002407;28;20448;-79
2024/02/10 14:30:39;;;;;;;7.85;4.20;;;13.60;99.90;;;;;;5000722;28;20479;-82
2024/02/10 14:33:09;;;;;;;6.97;3.92;;;13.60;99.90;;;;;;5008913;28;20018;-80
2024/02/10 14:35:46;;;;;;;8.88;4.32;;;13.60;99.90;;;;;;4987508;28;20046;-80
2024/02/10 14:39:16;;;;;;;8.63;4.32;;;13.60;99.90;;;;;;5004294;28;20495;-80
2024/02/10 14:41:09;;;;;;;8.73;4.10;;;13.60;99.90;;;;;;4998095;28;20038;-79
2024/02/10 14:43:38;;;;;;;9.77;4.20;;;13.60;99.90;;;;;;4989890;28;20113;-82
2024/02/10 14:46:08;;;;;;;7.95;5.07;;;13.60;99.90;;;;;;5003113;28;20025;-80
2024/02/10 14:48:35;;;;;;;10.90;5.50;;;13.60;99.90;;;;;;5000857;28;20384;-80
2024/02/10 14:51:01;;;;;;;6.45;4.53;;;13.60;99.90;;;;;;5000144;28;20117;-79
2024/02/10 14:53:38;;;;;;;9.40;6.13;;;13.60;99.90;;;;;;5001882;28;20029;-80
2024/02/10 14:56:09;;;;;;;9.85;7.13;;;13.60;99.90;;;;;;5003292;28;20205;-79
2024/02/10 14:58:36;;;;;;;9.75;6.10;;;13.60;99.90;;;;;;4995719;28;20034;-80
2024/02/10 15:01:04;;;;;;;8.18;4.43;;;13.60;99.90;;;;;;4990495;28;20108;-79
2024/02/10 15:03:36;;;;;;;8.77;4.40;;;13.60;99.90;;;;;;4990287;28;20587;-79
2024/02/10 15:06:03;;;;;;;8.18;4.47;;;13.60;99.90;;;;;;4986740;28;20026;-80
2024/02/10 15:08:28;;;;;;;11.60;4.70;;;13.60;99.90;;;;;;4994622;28;20022;-80
2024/02/10 15:10:55;;;;;;;7.25;4.50;;;13.60;99.90;;;;;;5005505;28;20022;-80
2024/02/10 15:13:24;;;;;;;7.82;4.05;;;13.50;99.90;;;;;;4981287;28;20423;-80
2024/02/10 15:15:53;;;;;;;6.70;4.15;;;13.50;99.90;;;;;;5007380;28;20045;-79
2024/02/10 15:18:20;;;;;;;6.78;3.70;;;13.50;99.90;;;;;;5008062;28;20022;-80
2024/02/10 15:20:49;;;;;;;9.10;4.40;;;13.50;99.90;;;;;;5007161;28;20033;-80
2024/02/10 15:23:19;;;;;;;8.55;4.63;;;13.50;99.90;;;;;;4996169;28;20033;-80
2024/02/10 15:25:46;;;;;;;10.68;5.50;;;13.50;99.90;;;;;;5007983;28;20026;-80
2024/02/10 15:28:18;;;;;;;8.80;5.00;;;13.50;99.90;;;;;;4995742;28;20034;-80
2024/02/10 15:30:53;;;;;;;7.93;3.95;;;13.50;99.90;;;;;;5006156;28;20053;-80
2024/02/10 15:33:21;;;;;;;6.20;3.47;;;13.40;99.90;;;;;;4994975;28;20080;-80
2024/02/10 15:35:49;;;;;;;6.90;3.60;;;13.40;99.90;;;;;;5006489;28;20108;-80
2024/02/10 15:38:16;;;;;;;8.05;4.22;;;13.40;99.90;;;;;;5006881;28;20041;-80
2024/02/10 15:40:46;;;;;;;7.28;3.13;;;13.40;99.90;;;;;;5009431;28;20061;-81
2024/02/10 15:43:14;;;;;;;7.97;3.97;;;13.40;99.90;;;;;;5008514;28;20072;-80
2024/02/10 15:45:44;;;;;;;8.50;3.95;;;13.30;99.90;;;;;;4988246;28;20625;-79
2024/02/10 15:48:17;;;;;;;8.10;4.13;;;13.30;99.90;;;;;;4988558;28;20026;-80
2024/02/10 15:50:45;;;;;;;8.60;4.07;;;13.30;99.90;;;;;;5008139;28;20034;-79
2024/02/10 15:53:11;;;;;;;9.52;4.22;;;13.30;99.90;;;;;;5008465;28;20030;-79
2024/02/10 15:55:37;;;;;;;8.18;3.75;;;13.30;99.90;;;;;;4990031;28;20036;-79
2024/02/10 15:58:03;;;;;;;7.45;3.75;;;13.30;99.90;;;;;;5005750;28;20018;-79
2024/02/10 16:00:30;;;;;;;14.60;4.32;;;13.30;99.90;;;;;;4998934;28;20053;-79
2024/02/10 16:02:59;;;;;;;9.32;4.00;;;13.30;99.90;;;;;;5008829;28;20030;-82
2024/02/10 16:05:31;;;;;;;8.88;4.07;;;13.30;99.90;;;;;;5004120;28;20029;-81
2024/02/10 16:08:01;;;;;;;10.25;4.40;;;13.20;99.90;;;;;;4987079;28;20018;-81
2024/02/10 16:10:28;;;;;;;8.30;3.77;;;13.20;99.90;;;;;;5000345;28;20022;-82
2024/02/10 16:12:55;;;;;;;8.52;4.30;;;13.20;99.90;;;;;;5003628;28;20273;-80
2024/02/10 16:15:22;;;;;;;8.70;4.22;;;13.20;99.90;;;;;;5002728;28;20022;-81
2024/02/10 16:17:50;;;;;;;7.75;3.92;;;13.20;99.90;;;;;;5006154;28;20048;-80
2024/02/10 16:20:17;;;;;;;8.98;4.20;;;13.20;99.90;;;;;;4992945;28;20015;-81
2024/02/10 16:22:51;;;;;;;8.00;4.00;;;13.20;99.90;;;;;;4986695;28;20435;-80
2024/02/10 16:25:27;;;;;;;9.75;4.20;;;13.10;99.90;;;;;;4994309;28;20069;-80
2024/02/10 16:27:55;;;;;;;8.30;3.72;;;13.20;99.90;;;;;;4995140;28;20053;-83
2024/02/10 16:30:21;;;;;;;9.05;4.47;;;13.10;99.90;;;;;;4998581;28;20044;-83
2024/02/10 16:32:50;;;;;;;7.30;4.25;;;13.10;99.90;;;;;;5008299;28;20034;-84
2024/02/10 16:35:28;;;;;;;8.10;4.65;;;13.10;99.90;;;;;;5003898;28;20037;-81
2024/02/10 16:37:58;;;;;;;10.15;4.50;;;13.10;99.90;;;;;;5009273;28;20205;-82
2024/02/10 16:40:29;;;;;;;9.03;4.30;;;13.10;99.90;;;;;;5002713;28;20092;-83
2024/02/10 16:42:58;;;;;;;7.88;4.38;;;13.00;99.90;;;;;;5007344;28;20537;-82
2024/02/10 16:45:25;;;;;;;7.38;4.50;;;13.00;99.90;;;;;;5006752;28;20088;-82
2024/02/10 16:47:52;;;;;;;8.15;4.70;;;13.00;99.90;;;;;;4989352;28;20037;-81
2024/02/10 16:50:26;;;;;;;8.32;4.88;;;13.00;99.90;;;;;;4999920;28;20551;-81
2024/02/10 16:53:05;;;;;;;11.45;5.07;;;13.00;99.90;;;;;;5003603;28;20093;-82
2024/02/10 16:55:33;;;;;;;11.88;4.85;;;12.90;99.90;;;;;;4979787;28;20010;-82
2024/02/10 16:58:00;;;;;;;7.40;5.07;;;12.90;99.90;;;;;;5007169;28;20490;-81
2024/02/10 17:00:26;;;;;;;9.20;5.05;;;12.90;99.90;;;;;;5000649;28;20046;-81
2024/02/10 17:02:59;;;;;;;9.35;5.22;;;12.90;99.90;;;;;;4998103;28;20029;-79
2024/02/10 17:05:28;;;;;;;9.30;5.30;;;12.90;99.90;;;;;;5004091;28;20033;-80
2024/02/10 17:08:01;;;;;;;9.05;5.40;;;12.80;99.90;;;;;;5002508;28;20396;-80
2024/02/10 17:10:36;;;;;;;7.75;5.18;;;12.80;99.90;;;;;;5007484;28;20079;-81
2024/02/10 17:13:06;;;;;;;8.18;5.30;;;12.80;99.90;;;;;;5003493;28;20034;-81
2024/02/10 17:15:34;;;;;;;9.20;4.97;;;12.80;99.90;;;;;;5002776;28;20033;-82
2024/02/10 17:18:00;;;;;;;9.95;5.55;;;12.80;99.90;;;;;;4978859;28;20451;-80
2024/02/10 17:20:28;;;;;;;9.10;5.22;;;12.70;99.90;;;;;;4998399;28;20033;-80
2024/02/10 17:22:54;;;;;;;7.00;5.30;;;12.70;99.90;;;;;;5005866;28;20072;-79
2024/02/10 17:25:30;;;;;;;8.60;5.55;;;12.70;99.90;;;;;;5006263;28;20026;-79
2024/02/10 17:27:56;;;;;;;7.45;5.05;;;12.60;99.90;;;;;;4977882;28;20525;-80
2024/02/10 17:30:22;;;;;;;9.27;5.75;;;12.60;99.90;;;;;;5006502;28;20046;-80
2024/02/10 17:32:48;;;;;;;11.18;5.45;;;12.60;99.90;;;;;;5007024;28;20029;-79
2024/02/10 17:35:20;;;;;;;8.50;5.63;;;12.60;99.90;;;;;;5008301;28;20021;-80
2024/02/10 17:37:57;;;;;;;8.52;5.50;;;12.60;99.90;;;;;;5011249;28;20030;-80
2024/02/10 17:40:25;;;;;;;8.25;5.60;;;12.60;99.90;;;;;;4989088;28;20169;-80
2024/02/10 17:42:52;;;;;;;8.20;5.75;;;12.50;99.90;;;;;;5004692;28;20045;-80
2024/02/10 17:45:17;;;;;;;8.60;6.20;;;12.50;99.90;;;;;;5006574;28;20045;-80
2024/02/10 17:47:44;;;;;;;8.05;5.93;;;12.50;99.90;;;;;;4988447;28;20022;-79
2024/02/10 17:50:11;;;;;;;9.48;5.78;;;12.50;99.90;;;;;;5006033;28;20026;-80
2024/02/10 17:52:38;;;;;;;9.45;6.07;;;12.50;99.90;;;;;;5004572;28;20029;-79
2024/02/10 17:55:06;;;;;;;7.13;5.28;;;12.40;99.90;;;;;;4987074;28;20014;-79
2024/02/10 17:57:32;;;;;;;7.30;5.90;;;12.40;99.90;;;;;;5002793;28;20038;-79
2024/02/10 17:59:58;;;;;;;9.65;6.13;;;12.40;99.90;;;;;;5003947;28;20509;-81